This demonstration page uses our WeatherBlox Daily Observations layout. Learn more.

36.17497, -115.13722

Hourly Observations for November 13, 2019

Temp ( °F °C ) Dew Point ( °F °C ) Humidity (%) Winds ( mph kmh ) Pressure ( in mb ) Visibility ( mi km ) Precip ( " mm )
12:53 am 00:53 Clear 54 12.2 26 -3.3 34 34 W 3 6 30.06 1018 10 16.09344 0 0
1:53 am 01:53 Clear 53 11.7 25 -3.9 34 34 WNW 3 6 30.06 1018 10 16.09344 0 0
2:53 am 02:53 Clear 54 12.2 23 -5 30 30 NW 3 6 30.03 1017 10 16.09344 0 0
3:53 am 03:53 Clear 52 11.1 21 -6.1 30 30 W 8 13 30.06 1018 10 16.09344 0 0
4:53 am 04:53 Clear 52 11.1 20 -6.7 28 28 NNW 5 7 30.06 1018 10 16.09344 0 0
5:53 am 05:53 Clear 51 10.6 20 -6.7 29 29 NW 6 9 30.06 1018 10 16.09344 0 0
6:53 am 06:53 Sunny 51 10.6 21 -6.1 31 31 NW 6 9 30.09 1019 10 16.09344 0 0
7:53 am 07:53 Sunny 60 15.6 21 -6.1 22 22 NNW 6 9 30.09 1019 10 16.09344 0 0
8:53 am 08:53 Sunny 64 17.8 22 -5.6 20 20 NE 3 6 30.09 1019 10 16.09344 0 0
9:53 am 09:53 Sunny 66 18.9 22 -5.6 19 19 Calm 30.09 1019 10 16.09344 0 0
10:53 am 10:53 Sunny 66 18.9 21 -6.1 18 18 VRB 3 6 30.06 1018 10 16.09344 0 0
11:53 am 11:53 Sunny 69 20.6 21 -6.1 16 16 ESE 3 6 30.03 1017 10 16.09344 0 0
12:53 pm 12:53 Sunny 72 22.2 20 -6.7 14 14 ENE 3 6 30 1016 10 16.09344 0 0
1:53 pm 13:53 Sunny 74 23.3 21 -6.1 14 14 Calm 30 1016 10 16.09344 0 0
2:53 pm 14:53 Sunny 73 22.8 21 -6.1 14 14 Calm 29.97 1015 10 16.09344 0 0
3:53 pm 15:53 Sunny 72 22.2 22 -5.6 15 15 SSE 3 6 29.97 1015 10 16.09344 0 0
4:53 pm 16:53 Clear 70 21.1 23 -5 17 17 Calm 29.97 1015 10 16.09344 0 0
5:53 pm 17:53 Clear 68 20 26 -3.3 21 21 Calm 30 1016 10 16.09344 0 0
6:53 pm 18:53 Clear 63 17.2 28 -2.2 27 27 NW 3 6 30 1016 10 16.09344 0 0
7:53 pm 19:53 Clear 62 16.7 30 -1.1 30 30 WNW 5 7 30 1016 10 16.09344 0 0
8:53 pm 20:53 Clear 59 15 28 -2.2 31 31 NW 7 11 30 1016 10 16.09344 0 0
9:53 pm 21:53 Clear 56 13.3 27 -2.8 33 33 WNW 7 11 30.03 1017 10 16.09344 0 0
10:53 pm 22:53 Clear 55 12.8 27 -2.8 34 34 NW 5 7 30.03 1017 10 16.09344 0 0
11:53 pm 23:53 Clear 54 12.2 28 -2.2 37 37 WNW 3 6 30.03 1017 10 16.09344 0 0

Powered by AerisWeather